sensor_id;sensor_type;location;lat;lon;timestamp;P1;durP1;ratioP1;P2;durP2;ratioP2
11514;SDS011;5814;41.936;25.556;2022-10-16T00:02:24;11.63;;;10.53;;
11514;SDS011;5814;41.936;25.556;2022-10-16T00:04:51;12.27;;;11.07;;
11514;SDS011;5814;41.936;25.556;2022-10-16T00:07:18;13.03;;;10.90;;
11514;SDS011;5814;41.936;25.556;2022-10-16T00:09:46;16.00;;;11.47;;
11514;SDS011;5814;41.936;25.556;2022-10-16T00:12:13;14.37;;;11.37;;
11514;SDS011;5814;41.936;25.556;2022-10-16T00:14:40;12.53;;;11.23;;
11514;SDS011;5814;41.936;25.556;2022-10-16T00:17:07;13.10;;;11.90;;
11514;SDS011;5814;41.936;25.556;2022-10-16T00:19:34;12.60;;;11.40;;
11514;SDS011;5814;41.936;25.556;2022-10-16T00:22:02;12.07;;;11.07;;
11514;SDS011;5814;41.936;25.556;2022-10-16T00:24:29;11.47;;;10.50;;
11514;SDS011;5814;41.936;25.556;2022-10-16T00:26:56;12.93;;;11.63;;
11514;SDS011;5814;41.936;25.556;2022-10-16T00:29:23;12.67;;;11.47;;
11514;SDS011;5814;41.936;25.556;2022-10-16T00:31:50;13.17;;;11.97;;
11514;SDS011;5814;41.936;25.556;2022-10-16T00:34:18;12.93;;;11.73;;
11514;SDS011;5814;41.936;25.556;2022-10-16T00:36:45;11.63;;;10.60;;
11514;SDS011;5814;41.936;25.556;2022-10-16T00:39:12;11.60;;;10.50;;
11514;SDS011;5814;41.936;25.556;2022-10-16T00:41:39;12.10;;;10.90;;
11514;SDS011;5814;41.936;25.556;2022-10-16T00:44:45;15.00;;;12.20;;
11514;SDS011;5814;41.936;25.556;2022-10-16T00:47:00;11.80;;;10.80;;
11514;SDS011;5814;41.936;25.556;2022-10-16T00:49:27;12.70;;;11.70;;
11514;SDS011;5814;41.936;25.556;2022-10-16T00:51:54;12.50;;;11.30;;
11514;SDS011;5814;41.936;25.556;2022-10-16T00:54:23;12.77;;;11.57;;
11514;SDS011;5814;41.936;25.556;2022-10-16T00:56:49;12.80;;;11.57;;
11514;SDS011;5814;41.936;25.556;2022-10-16T00:59:18;12.70;;;11.40;;
11514;SDS011;5814;41.936;25.556;2022-10-16T01:01:45;12.17;;;10.93;;
11514;SDS011;5814;41.936;25.556;2022-10-16T01:04:12;12.83;;;11.53;;
11514;SDS011;5814;41.936;25.556;2022-10-16T01:06:43;12.83;;;11.20;;
11514;SDS011;5814;41.936;25.556;2022-10-16T01:09:12;16.63;;;11.13;;
11514;SDS011;5814;41.936;25.556;2022-10-16T01:11:51;13.47;;;11.07;;
11514;SDS011;5814;41.936;25.556;2022-10-16T01:14:26;11.30;;;10.27;;
11514;SDS011;5814;41.936;25.556;2022-10-16T01:16:54;12.33;;;11.23;;
11514;SDS011;5814;41.936;25.556;2022-10-16T01:19:25;11.97;;;10.80;;
11514;SDS011;5814;41.936;25.556;2022-10-16T01:22:02;11.97;;;10.83;;
11514;SDS011;5814;41.936;25.556;2022-10-16T01:24:33;11.33;;;10.43;;
11514;SDS011;5814;41.936;25.556;2022-10-16T01:27:08;11.73;;;10.30;;
11514;SDS011;5814;41.936;25.556;2022-10-16T01:29:42;11.70;;;10.60;;
11514;SDS011;5814;41.936;25.556;2022-10-16T01:32:14;12.33;;;11.17;;
11514;SDS011;5814;41.936;25.556;2022-10-16T01:34:42;12.23;;;10.67;;
11514;SDS011;5814;41.936;25.556;2022-10-16T01:37:07;11.70;;;10.80;;
11514;SDS011;5814;41.936;25.556;2022-10-16T01:39:33;12.00;;;10.90;;
11514;SDS011;5814;41.936;25.556;2022-10-16T01:42:02;12.87;;;11.20;;
11514;SDS011;5814;41.936;25.556;2022-10-16T01:44:29;12.60;;;11.30;;
11514;SDS011;5814;41.936;25.556;2022-10-16T01:46:55;12.27;;;11.27;;
11514;SDS011;5814;41.936;25.556;2022-10-16T01:49:23;12.03;;;10.90;;
11514;SDS011;5814;41.936;25.556;2022-10-16T01:51:52;12.63;;;11.53;;
11514;SDS011;5814;41.936;25.556;2022-10-16T01:54:17;11.90;;;10.83;;
11514;SDS011;5814;41.936;25.556;2022-10-16T01:56:44;12.40;;;11.40;;
11514;SDS011;5814;41.936;25.556;2022-10-16T01:59:12;12.23;;;10.63;;
11514;SDS011;5814;41.936;25.556;2022-10-16T02:01:40;11.87;;;10.60;;
11514;SDS011;5814;41.936;25.556;2022-10-16T02:04:12;11.90;;;10.80;;
11514;SDS011;5814;41.936;25.556;2022-10-16T02:06:36;11.20;;;10.30;;
11514;SDS011;5814;41.936;25.556;2022-10-16T02:09:04;11.47;;;10.40;;
11514;SDS011;5814;41.936;25.556;2022-10-16T02:11:31;11.13;;;10.33;;
11514;SDS011;5814;41.936;25.556;2022-10-16T02:14:00;11.53;;;10.63;;
11514;SDS011;5814;41.936;25.556;2022-10-16T02:16:33;11.53;;;10.60;;
11514;SDS011;5814;41.936;25.556;2022-10-16T02:18:59;11.50;;;10.40;;
11514;SDS011;5814;41.936;25.556;2022-10-16T02:21:28;11.00;;;10.00;;
11514;SDS011;5814;41.936;25.556;2022-10-16T02:23:57;11.00;;;10.03;;
11514;SDS011;5814;41.936;25.556;2022-10-16T02:26:27;12.00;;;10.77;;
11514;SDS011;5814;41.936;25.556;2022-10-16T02:28:53;11.80;;;10.70;;
11514;SDS011;5814;41.936;25.556;2022-10-16T02:31:21;11.20;;;10.10;;
11514;SDS011;5814;41.936;25.556;2022-10-16T02:33:46;10.47;;;9.67;;
11514;SDS011;5814;41.936;25.556;2022-10-16T02:36:13;11.03;;;10.13;;
11514;SDS011;5814;41.936;25.556;2022-10-16T02:38:41;10.73;;;9.93;;
11514;SDS011;5814;41.936;25.556;2022-10-16T02:41:08;10.97;;;9.93;;
11514;SDS011;5814;41.936;25.556;2022-10-16T02:43:35;11.03;;;10.03;;
11514;SDS011;5814;41.936;25.556;2022-10-16T02:46:02;10.60;;;9.57;;
11514;SDS011;5814;41.936;25.556;2022-10-16T02:48:29;11.67;;;9.80;;
11514;SDS011;5814;41.936;25.556;2022-10-16T02:50:57;10.43;;;9.53;;
11514;SDS011;5814;41.936;25.556;2022-10-16T02:53:24;11.60;;;10.30;;
11514;SDS011;5814;41.936;25.556;2022-10-16T02:55:51;10.90;;;10.00;;
11514;SDS011;5814;41.936;25.556;2022-10-16T02:58:18;10.67;;;9.60;;
11514;SDS011;5814;41.936;25.556;2022-10-16T03:00:45;11.80;;;10.70;;
11514;SDS011;5814;41.936;25.556;2022-10-16T03:03:12;10.83;;;10.13;;
11514;SDS011;5814;41.936;25.556;2022-10-16T03:05:40;11.13;;;10.13;;
11514;SDS011;5814;41.936;25.556;2022-10-16T03:08:07;11.40;;;10.50;;
11514;SDS011;5814;41.936;25.556;2022-10-16T03:10:34;11.43;;;10.43;;
11514;SDS011;5814;41.936;25.556;2022-10-16T03:13:01;11.10;;;10.20;;
11514;SDS011;5814;41.936;25.556;2022-10-16T03:15:28;11.23;;;10.33;;
11514;SDS011;5814;41.936;25.556;2022-10-16T03:17:57;11.03;;;10.03;;
11514;SDS011;5814;41.936;25.556;2022-10-16T03:20:24;10.87;;;9.87;;
11514;SDS011;5814;41.936;25.556;2022-10-16T03:22:51;11.17;;;10.27;;
11514;SDS011;5814;41.936;25.556;2022-10-16T03:25:18;11.13;;;10.07;;
11514;SDS011;5814;41.936;25.556;2022-10-16T03:27:45;11.40;;;10.50;;
11514;SDS011;5814;41.936;25.556;2022-10-16T03:30:12;11.37;;;10.57;;
11514;SDS011;5814;41.936;25.556;2022-10-16T03:32:40;11.53;;;10.57;;
11514;SDS011;5814;41.936;25.556;2022-10-16T03:35:07;11.80;;;10.70;;
11514;SDS011;5814;41.936;25.556;2022-10-16T03:37:34;11.23;;;10.30;;
11514;SDS011;5814;41.936;25.556;2022-10-16T03:40:02;11.37;;;10.47;;
11514;SDS011;5814;41.936;25.556;2022-10-16T03:42:29;12.20;;;11.13;;
11514;SDS011;5814;41.936;25.556;2022-10-16T03:44:56;11.13;;;10.33;;
11514;SDS011;5814;41.936;25.556;2022-10-16T03:47:23;11.63;;;10.63;;
11514;SDS011;5814;41.936;25.556;2022-10-16T03:49:50;11.57;;;10.57;;
11514;SDS011;5814;41.936;25.556;2022-10-16T03:52:17;11.40;;;10.50;;
11514;SDS011;5814;41.936;25.556;2022-10-16T03:54:45;11.63;;;10.47;;
11514;SDS011;5814;41.936;25.556;2022-10-16T03:57:12;12.30;;;11.30;;
11514;SDS011;5814;41.936;25.556;2022-10-16T03:59:39;12.00;;;11.00;;
11514;SDS011;5814;41.936;25.556;2022-10-16T04:02:06;11.97;;;11.07;;
11514;SDS011;5814;41.936;25.556;2022-10-16T04:04:33;11.77;;;10.83;;
11514;SDS011;5814;41.936;25.556;2022-10-16T04:07:00;12.00;;;11.00;;
11514;SDS011;5814;41.936;25.556;2022-10-16T04:09:28;12.10;;;11.10;;
11514;SDS011;5814;41.936;25.556;2022-10-16T04:11:55;12.50;;;11.50;;
11514;SDS011;5814;41.936;25.556;2022-10-16T04:14:22;12.27;;;11.30;;
11514;SDS011;5814;41.936;25.556;2022-10-16T04:16:49;12.13;;;11.07;;
11514;SDS011;5814;41.936;25.556;2022-10-16T04:19:16;12.63;;;11.63;;
11514;SDS011;5814;41.936;25.556;2022-10-16T04:21:44;12.73;;;11.60;;
11514;SDS011;5814;41.936;25.556;2022-10-16T04:24:11;12.50;;;11.50;;
11514;SDS011;5814;41.936;25.556;2022-10-16T04:26:38;13.00;;;12.00;;
11514;SDS011;5814;41.936;25.556;2022-10-16T04:29:05;11.50;;;10.47;;
11514;SDS011;5814;41.936;25.556;2022-10-16T04:31:33;12.30;;;11.20;;
11514;SDS011;5814;41.936;25.556;2022-10-16T04:33:59;13.20;;;11.93;;
11514;SDS011;5814;41.936;25.556;2022-10-16T04:36:27;12.83;;;11.63;;
11514;SDS011;5814;41.936;25.556;2022-10-16T04:38:54;11.60;;;10.60;;
11514;SDS011;5814;41.936;25.556;2022-10-16T04:41:21;12.40;;;11.50;;
11514;SDS011;5814;41.936;25.556;2022-10-16T04:43:48;13.27;;;12.03;;
11514;SDS011;5814;41.936;25.556;2022-10-16T04:46:15;12.77;;;11.80;;
11514;SDS011;5814;41.936;25.556;2022-10-16T04:48:42;12.73;;;11.73;;
11514;SDS011;5814;41.936;25.556;2022-10-16T04:51:10;13.20;;;12.20;;
11514;SDS011;5814;41.936;25.556;2022-10-16T04:53:37;13.20;;;12.10;;
11514;SDS011;5814;41.936;25.556;2022-10-16T04:56:04;13.93;;;12.63;;
11514;SDS011;5814;41.936;25.556;2022-10-16T04:58:32;13.47;;;12.17;;
11514;SDS011;5814;41.936;25.556;2022-10-16T05:00:59;14.00;;;12.57;;
11514;SDS011;5814;41.936;25.556;2022-10-16T05:03:26;13.63;;;12.40;;
11514;SDS011;5814;41.936;25.556;2022-10-16T05:05:53;13.57;;;12.40;;
11514;SDS011;5814;41.936;25.556;2022-10-16T05:08:20;14.07;;;12.77;;
11514;SDS011;5814;41.936;25.556;2022-10-16T05:10:47;13.27;;;12.23;;
11514;SDS011;5814;41.936;25.556;2022-10-16T05:13:15;15.00;;;12.70;;
11514;SDS011;5814;41.936;25.556;2022-10-16T05:15:42;13.03;;;11.97;;
11514;SDS011;5814;41.936;25.556;2022-10-16T05:18:09;13.00;;;11.97;;
11514;SDS011;5814;41.936;25.556;2022-10-16T05:20:36;15.57;;;13.53;;
11514;SDS011;5814;41.936;25.556;2022-10-16T05:23:03;13.87;;;12.47;;
11514;SDS011;5814;41.936;25.556;2022-10-16T05:25:31;12.90;;;11.57;;
11514;SDS011;5814;41.936;25.556;2022-10-16T05:27:58;13.73;;;12.07;;
11514;SDS011;5814;41.936;25.556;2022-10-16T05:30:25;21.00;;;12.20;;
11514;SDS011;5814;41.936;25.556;2022-10-16T05:32:52;15.73;;;12.67;;
11514;SDS011;5814;41.936;25.556;2022-10-16T05:35:19;17.60;;;11.57;;
11514;SDS011;5814;41.936;25.556;2022-10-16T05:37:46;15.33;;;12.37;;
11514;SDS011;5814;41.936;25.556;2022-10-16T05:40:14;12.90;;;11.57;;
11514;SDS011;5814;41.936;25.556;2022-10-16T05:42:41;12.87;;;11.00;;
11514;SDS011;5814;41.936;25.556;2022-10-16T05:45:09;16.27;;;12.17;;
11514;SDS011;5814;41.936;25.556;2022-10-16T05:47:36;13.33;;;11.67;;
11514;SDS011;5814;41.936;25.556;2022-10-16T05:50:03;13.80;;;12.13;;
11514;SDS011;5814;41.936;25.556;2022-10-16T05:52:31;17.57;;;12.37;;
11514;SDS011;5814;41.936;25.556;2022-10-16T05:54:58;16.90;;;12.10;;
11514;SDS011;5814;41.936;25.556;2022-10-16T05:57:25;13.17;;;11.50;;
11514;SDS011;5814;41.936;25.556;2022-10-16T05:59:52;13.20;;;11.83;;
11514;SDS011;5814;41.936;25.556;2022-10-16T06:02:20;14.07;;;12.67;;
11514;SDS011;5814;41.936;25.556;2022-10-16T06:04:47;12.53;;;11.13;;
11514;SDS011;5814;41.936;25.556;2022-10-16T06:07:14;13.47;;;12.07;;
11514;SDS011;5814;41.936;25.556;2022-10-16T06:09:41;12.23;;;11.23;;
11514;SDS011;5814;41.936;25.556;2022-10-16T06:12:08;13.03;;;11.80;;
11514;SDS011;5814;41.936;25.556;2022-10-16T06:14:36;12.50;;;11.33;;
11514;SDS011;5814;41.936;25.556;2022-10-16T06:17:03;12.10;;;10.90;;
11514;SDS011;5814;41.936;25.556;2022-10-16T06:19:30;11.43;;;10.40;;
11514;SDS011;5814;41.936;25.556;2022-10-16T06:21:57;12.50;;;11.20;;
11514;SDS011;5814;41.936;25.556;2022-10-16T06:24:24;13.30;;;11.03;;
11514;SDS011;5814;41.936;25.556;2022-10-16T06:26:51;11.13;;;9.57;;
11514;SDS011;5814;41.936;25.556;2022-10-16T06:29:19;13.87;;;11.07;;
11514;SDS011;5814;41.936;25.556;2022-10-16T06:31:46;13.00;;;10.93;;
11514;SDS011;5814;41.936;25.556;2022-10-16T06:34:13;15.33;;;10.80;;
11514;SDS011;5814;41.936;25.556;2022-10-16T06:36:40;11.23;;;10.13;;
11514;SDS011;5814;41.936;25.556;2022-10-16T06:39:07;11.93;;;10.77;;
11514;SDS011;5814;41.936;25.556;2022-10-16T06:41:35;12.37;;;11.03;;
11514;SDS011;5814;41.936;25.556;2022-10-16T06:44:04;11.47;;;10.47;;
11514;SDS011;5814;41.936;25.556;2022-10-16T06:46:29;11.70;;;10.53;;
11514;SDS011;5814;41.936;25.556;2022-10-16T06:48:56;12.50;;;11.20;;
11514;SDS011;5814;41.936;25.556;2022-10-16T06:51:24;17.23;;;11.87;;
11514;SDS011;5814;41.936;25.556;2022-10-16T06:53:52;12.20;;;10.57;;
11514;SDS011;5814;41.936;25.556;2022-10-16T06:56:19;10.63;;;9.53;;
11514;SDS011;5814;41.936;25.556;2022-10-16T06:58:48;10.70;;;9.63;;
11514;SDS011;5814;41.936;25.556;2022-10-16T07:01:15;8.20;;;7.50;;
11514;SDS011;5814;41.936;25.556;2022-10-16T07:03:42;7.40;;;6.87;;
11514;SDS011;5814;41.936;25.556;2022-10-16T07:06:10;7.60;;;7.00;;
11514;SDS011;5814;41.936;25.556;2022-10-16T07:08:37;7.37;;;6.77;;
11514;SDS011;5814;41.936;25.556;2022-10-16T07:11:04;7.03;;;6.37;;
11514;SDS011;5814;41.936;25.556;2022-10-16T07:13:32;7.27;;;6.63;;
11514;SDS011;5814;41.936;25.556;2022-10-16T07:16:04;7.33;;;6.83;;
11514;SDS011;5814;41.936;25.556;2022-10-16T07:18:34;7.80;;;7.10;;
11514;SDS011;5814;41.936;25.556;2022-10-16T07:21:03;7.00;;;6.40;;
11514;SDS011;5814;41.936;25.556;2022-10-16T07:23:38;7.80;;;7.20;;
11514;SDS011;5814;41.936;25.556;2022-10-16T07:26:05;7.13;;;6.63;;
11514;SDS011;5814;41.936;25.556;2022-10-16T07:28:32;6.60;;;6.20;;
11514;SDS011;5814;41.936;25.556;2022-10-16T07:31:00;7.20;;;6.63;;
11514;SDS011;5814;41.936;25.556;2022-10-16T07:33:26;7.27;;;6.77;;
11514;SDS011;5814;41.936;25.556;2022-10-16T07:35:54;7.70;;;7.00;;
11514;SDS011;5814;41.936;25.556;2022-10-16T07:38:21;6.80;;;6.30;;
11514;SDS011;5814;41.936;25.556;2022-10-16T07:40:48;6.53;;;6.00;;
11514;SDS011;5814;41.936;25.556;2022-10-16T07:43:15;7.03;;;6.53;;
11514;SDS011;5814;41.936;25.556;2022-10-16T07:45:47;8.63;;;6.40;;
11514;SDS011;5814;41.936;25.556;2022-10-16T07:48:13;6.93;;;6.50;;
11514;SDS011;5814;41.936;25.556;2022-10-16T07:50:40;6.87;;;6.37;;
11514;SDS011;5814;41.936;25.556;2022-10-16T07:53:08;7.47;;;6.70;;
11514;SDS011;5814;41.936;25.556;2022-10-16T07:55:35;6.90;;;6.40;;
11514;SDS011;5814;41.936;25.556;2022-10-16T07:58:02;7.07;;;6.60;;
11514;SDS011;5814;41.936;25.556;2022-10-16T08:00:29;7.00;;;6.50;;
11514;SDS011;5814;41.936;25.556;2022-10-16T08:02:57;7.30;;;6.80;;
11514;SDS011;5814;41.936;25.556;2022-10-16T08:05:29;7.80;;;7.10;;
11514;SDS011;5814;41.936;25.556;2022-10-16T08:07:56;6.50;;;6.00;;
11514;SDS011;5814;41.936;25.556;2022-10-16T08:10:24;7.80;;;7.10;;
11514;SDS011;5814;41.936;25.556;2022-10-16T08:12:51;7.23;;;6.47;;
11514;SDS011;5814;41.936;25.556;2022-10-16T08:15:18;7.20;;;6.63;;
11514;SDS011;5814;41.936;25.556;2022-10-16T08:17:53;7.20;;;6.70;;
11514;SDS011;5814;41.936;25.556;2022-10-16T08:20:12;7.10;;;6.70;;
11514;SDS011;5814;41.936;25.556;2022-10-16T08:22:39;8.10;;;7.40;;
11514;SDS011;5814;41.936;25.556;2022-10-16T08:25:06;7.77;;;7.17;;
11514;SDS011;5814;41.936;25.556;2022-10-16T08:27:34;6.97;;;6.47;;
11514;SDS011;5814;41.936;25.556;2022-10-16T08:30:01;8.40;;;7.80;;
11514;SDS011;5814;41.936;25.556;2022-10-16T08:32:28;8.80;;;8.10;;
11514;SDS011;5814;41.936;25.556;2022-10-16T08:34:55;9.07;;;8.37;;
11514;SDS011;5814;41.936;25.556;2022-10-16T08:37:23;8.90;;;8.20;;
11514;SDS011;5814;41.936;25.556;2022-10-16T08:39:50;9.10;;;8.50;;
11514;SDS011;5814;41.936;25.556;2022-10-16T08:42:21;9.47;;;8.77;;
11514;SDS011;5814;41.936;25.556;2022-10-16T08:44:56;10.60;;;9.77;;
11514;SDS011;5814;41.936;25.556;2022-10-16T08:47:23;10.50;;;9.70;;
11514;SDS011;5814;41.936;25.556;2022-10-16T08:49:55;10.47;;;9.60;;
11514;SDS011;5814;41.936;25.556;2022-10-16T08:52:25;10.77;;;9.87;;
11514;SDS011;5814;41.936;25.556;2022-10-16T08:54:51;11.53;;;10.40;;
11514;SDS011;5814;41.936;25.556;2022-10-16T08:57:20;11.37;;;10.40;;
11514;SDS011;5814;41.936;25.556;2022-10-16T08:59:46;11.67;;;10.70;;
11514;SDS011;5814;41.936;25.556;2022-10-16T09:02:22;11.63;;;10.53;;
11514;SDS011;5814;41.936;25.556;2022-10-16T09:04:53;11.40;;;10.37;;
11514;SDS011;5814;41.936;25.556;2022-10-16T09:07:40;10.63;;;9.73;;
11514;SDS011;5814;41.936;25.556;2022-10-16T09:10:26;11.13;;;10.00;;
11514;SDS011;5814;41.936;25.556;2022-10-16T09:12:57;11.20;;;10.33;;
11514;SDS011;5814;41.936;25.556;2022-10-16T09:15:43;11.10;;;10.05;;
11514;SDS011;5814;41.936;25.556;2022-10-16T09:18:12;11.40;;;10.40;;
11514;SDS011;5814;41.936;25.556;2022-10-16T09:20:59;10.83;;;9.97;;
11514;SDS011;5814;41.936;25.556;2022-10-16T09:23:29;11.50;;;10.50;;
11514;SDS011;5814;41.936;25.556;2022-10-16T09:25:55;11.37;;;10.47;;
11514;SDS011;5814;41.936;25.556;2022-10-16T09:28:22;11.00;;;10.00;;
11514;SDS011;5814;41.936;25.556;2022-10-16T09:30:50;11.60;;;10.50;;
11514;SDS011;5814;41.936;25.556;2022-10-16T09:33:18;11.53;;;10.57;;
11514;SDS011;5814;41.936;25.556;2022-10-16T09:35:47;11.93;;;10.93;;
11514;SDS011;5814;41.936;25.556;2022-10-16T09:40:47;12.53;;;11.40;;
11514;SDS011;5814;41.936;25.556;2022-10-16T09:43:19;12.60;;;11.40;;
11514;SDS011;5814;41.936;25.556;2022-10-16T09:45:52;11.93;;;11.13;;
11514;SDS011;5814;41.936;25.556;2022-10-16T09:48:11;12.90;;;11.40;;
11514;SDS011;5814;41.936;25.556;2022-10-16T09:50:39;11.37;;;10.47;;
11514;SDS011;5814;41.936;25.556;2022-10-16T09:53:10;11.50;;;10.70;;
11514;SDS011;5814;41.936;25.556;2022-10-16T09:55:47;11.77;;;10.77;;
11514;SDS011;5814;41.936;25.556;2022-10-16T09:58:11;11.95;;;11.00;;
11514;SDS011;5814;41.936;25.556;2022-10-16T10:00:31;11.57;;;10.57;;
11514;SDS011;5814;41.936;25.556;2022-10-16T10:02:58;11.18;;;10.35;;
11514;SDS011;5814;41.936;25.556;2022-10-16T10:05:27;10.90;;;10.00;;
11514;SDS011;5814;41.936;25.556;2022-10-16T10:07:54;11.10;;;10.32;;
11514;SDS011;5814;41.936;25.556;2022-10-16T10:10:23;11.70;;;10.80;;
11514;SDS011;5814;41.936;25.556;2022-10-16T10:12:52;12.43;;;11.18;;
11514;SDS011;5814;41.936;25.556;2022-10-16T10:15:19;11.60;;;10.50;;
11514;SDS011;5814;41.936;25.556;2022-10-16T10:17:47;10.77;;;10.07;;
11514;SDS011;5814;41.936;25.556;2022-10-16T10:25:53;11.20;;;10.30;;
11514;SDS011;5814;41.936;25.556;2022-10-16T10:28:29;11.75;;;10.85;;
11514;SDS011;5814;41.936;25.556;2022-10-16T10:31:03;10.38;;;9.48;;
11514;SDS011;5814;41.936;25.556;2022-10-16T10:33:37;10.65;;;9.70;;
11514;SDS011;5814;41.936;25.556;2022-10-16T10:36:16;10.88;;;9.90;;
11514;SDS011;5814;41.936;25.556;2022-10-16T10:38:51;10.98;;;10.15;;
11514;SDS011;5814;41.936;25.556;2022-10-16T10:41:55;10.50;;;9.50;;
11514;SDS011;5814;41.936;25.556;2022-10-16T10:46:51;11.00;;;10.00;;
11514;SDS011;5814;41.936;25.556;2022-10-16T10:49:28;11.02;;;10.23;;
11514;SDS011;5814;41.936;25.556;2022-10-16T10:52:13;11.18;;;10.23;;
11514;SDS011;5814;41.936;25.556;2022-10-16T10:54:50;11.00;;;10.30;;
11514;SDS011;5814;41.936;25.556;2022-10-16T10:57:21;11.27;;;9.90;;
11514;SDS011;5814;41.936;25.556;2022-10-16T10:59:52;9.52;;;8.77;;
11514;SDS011;5814;41.936;25.556;2022-10-16T11:02:22;9.57;;;8.73;;
11514;SDS011;5814;41.936;25.556;2022-10-16T11:07:34;10.02;;;9.23;;
11514;SDS011;5814;41.936;25.556;2022-10-16T11:10:40;10.10;;;9.20;;
11514;SDS011;5814;41.936;25.556;2022-10-16T11:12:51;10.02;;;9.23;;
11514;SDS011;5814;41.936;25.556;2022-10-16T11:15:19;9.35;;;8.65;;
11514;SDS011;5814;41.936;25.556;2022-10-16T11:17:51;9.05;;;8.45;;
11514;SDS011;5814;41.936;25.556;2022-10-16T11:20:24;9.20;;;8.50;;
11514;SDS011;5814;41.936;25.556;2022-10-16T11:22:54;9.18;;;8.52;;
11514;SDS011;5814;41.936;25.556;2022-10-16T11:25:24;8.50;;;7.78;;
11514;SDS011;5814;41.936;25.556;2022-10-16T11:27:56;8.70;;;8.10;;
11514;SDS011;5814;41.936;25.556;2022-10-16T11:30:22;9.45;;;8.55;;
11514;SDS011;5814;41.936;25.556;2022-10-16T11:32:50;9.07;;;8.48;;
11514;SDS011;5814;41.936;25.556;2022-10-16T11:35:38;8.70;;;8.00;;
11514;SDS011;5814;41.936;25.556;2022-10-16T11:38:15;9.00;;;8.40;;
11514;SDS011;5814;41.936;25.556;2022-10-16T11:40:59;8.10;;;7.60;;
11514;SDS011;5814;41.936;25.556;2022-10-16T11:43:29;7.80;;;7.12;;
11514;SDS011;5814;41.936;25.556;2022-10-16T11:46:02;7.93;;;7.37;;
11514;SDS011;5814;41.936;25.556;2022-10-16T11:48:27;7.60;;;7.00;;
11514;SDS011;5814;41.936;25.556;2022-10-16T11:51:00;7.80;;;7.20;;
11514;SDS011;5814;41.936;25.556;2022-10-16T11:53:37;8.05;;;7.45;;
11514;SDS011;5814;41.936;25.556;2022-10-16T11:56:05;7.65;;;7.05;;
11514;SDS011;5814;41.936;25.556;2022-10-16T11:58:35;7.95;;;7.35;;
11514;SDS011;5814;41.936;25.556;2022-10-16T12:01:13;7.18;;;6.68;;
11514;SDS011;5814;41.936;25.556;2022-10-16T12:03:56;7.72;;;6.87;;
11514;SDS011;5814;41.936;25.556;2022-10-16T12:06:30;6.68;;;6.18;;
11514;SDS011;5814;41.936;25.556;2022-10-16T12:08:57;5.97;;;5.62;;
11514;SDS011;5814;41.936;25.556;2022-10-16T12:11:31;6.78;;;6.28;;
11514;SDS011;5814;41.936;25.556;2022-10-16T12:16:52;6.15;;;5.75;;
11514;SDS011;5814;41.936;25.556;2022-10-16T12:19:18;6.70;;;6.20;;
11514;SDS011;5814;41.936;25.556;2022-10-16T12:21:45;7.20;;;6.50;;
11514;SDS011;5814;41.936;25.556;2022-10-16T12:26:46;6.82;;;6.32;;
11514;SDS011;5814;41.936;25.556;2022-10-16T12:29:22;6.95;;;6.35;;
11514;SDS011;5814;41.936;25.556;2022-10-16T12:31:48;6.62;;;6.20;;
11514;SDS011;5814;41.936;25.556;2022-10-16T12:34:22;6.78;;;6.28;;
11514;SDS011;5814;41.936;25.556;2022-10-16T12:37:07;6.32;;;5.93;;
11514;SDS011;5814;41.936;25.556;2022-10-16T12:39:40;6.55;;;5.93;;
11514;SDS011;5814;41.936;25.556;2022-10-16T12:44:45;6.75;;;6.35;;
11514;SDS011;5814;41.936;25.556;2022-10-16T12:47:20;7.20;;;6.80;;
11514;SDS011;5814;41.936;25.556;2022-10-16T12:49:50;7.03;;;6.40;;
11514;SDS011;5814;41.936;25.556;2022-10-16T12:54:50;7.10;;;6.60;;
11514;SDS011;5814;41.936;25.556;2022-10-16T12:57:25;7.80;;;7.30;;
11514;SDS011;5814;41.936;25.556;2022-10-16T13:03:01;6.45;;;6.00;;
11514;SDS011;5814;41.936;25.556;2022-10-16T13:05:46;6.72;;;5.82;;
11514;SDS011;5814;41.936;25.556;2022-10-16T13:11:20;7.25;;;5.95;;
11514;SDS011;5814;41.936;25.556;2022-10-16T13:13:53;6.50;;;6.03;;
11514;SDS011;5814;41.936;25.556;2022-10-16T13:19:18;5.85;;;5.45;;
11514;SDS011;5814;41.936;25.556;2022-10-16T13:21:49;6.47;;;6.07;;
11514;SDS011;5814;41.936;25.556;2022-10-16T13:24:19;6.80;;;6.03;;
11514;SDS011;5814;41.936;25.556;2022-10-16T13:26:52;6.40;;;5.90;;
11514;SDS011;5814;41.936;25.556;2022-10-16T13:29:16;6.50;;;6.00;;
11514;SDS011;5814;41.936;25.556;2022-10-16T13:31:43;6.40;;;6.00;;
11514;SDS011;5814;41.936;25.556;2022-10-16T13:34:13;6.25;;;5.85;;
11514;SDS011;5814;41.936;25.556;2022-10-16T13:36:45;7.43;;;6.93;;
11514;SDS011;5814;41.936;25.556;2022-10-16T13:39:13;6.95;;;6.45;;
11514;SDS011;5814;41.936;25.556;2022-10-16T13:41:40;6.12;;;5.72;;
11514;SDS011;5814;41.936;25.556;2022-10-16T13:44:11;6.60;;;6.20;;
11514;SDS011;5814;41.936;25.556;2022-10-16T13:46:38;6.28;;;5.68;;
11514;SDS011;5814;41.936;25.556;2022-10-16T13:49:10;6.28;;;5.78;;
11514;SDS011;5814;41.936;25.556;2022-10-16T13:51:32;6.40;;;5.53;;
11514;SDS011;5814;41.936;25.556;2022-10-16T13:53:59;5.55;;;5.05;;
11514;SDS011;5814;41.936;25.556;2022-10-16T13:56:28;6.37;;;5.90;;
11514;SDS011;5814;41.936;25.556;2022-10-16T13:58:58;6.60;;;5.95;;
11514;SDS011;5814;41.936;25.556;2022-10-16T14:01:25;5.78;;;5.30;;
11514;SDS011;5814;41.936;25.556;2022-10-16T14:03:52;4.80;;;4.50;;
11514;SDS011;5814;41.936;25.556;2022-10-16T14:06:19;5.10;;;4.80;;
11514;SDS011;5814;41.936;25.556;2022-10-16T14:08:48;5.07;;;4.72;;
11514;SDS011;5814;41.936;25.556;2022-10-16T14:11:13;5.50;;;5.10;;
11514;SDS011;5814;41.936;25.556;2022-10-16T14:13:44;5.35;;;4.95;;
11514;SDS011;5814;41.936;25.556;2022-10-16T14:16:15;5.35;;;5.05;;
11514;SDS011;5814;41.936;25.556;2022-10-16T14:18:38;4.90;;;4.60;;
11514;SDS011;5814;41.936;25.556;2022-10-16T14:21:06;5.37;;;5.07;;
11514;SDS011;5814;41.936;25.556;2022-10-16T14:23:35;5.10;;;4.60;;
11514;SDS011;5814;41.936;25.556;2022-10-16T14:26:06;5.40;;;5.00;;
11514;SDS011;5814;41.936;25.556;2022-10-16T14:28:40;5.03;;;4.72;;
11514;SDS011;5814;41.936;25.556;2022-10-16T14:31:41;5.70;;;5.30;;
11514;SDS011;5814;41.936;25.556;2022-10-16T14:33:51;5.20;;;4.90;;
11514;SDS011;5814;41.936;25.556;2022-10-16T14:36:18;5.75;;;5.18;;
11514;SDS011;5814;41.936;25.556;2022-10-16T14:38:54;5.15;;;4.85;;
11514;SDS011;5814;41.936;25.556;2022-10-16T14:41:23;4.53;;;4.32;;
11514;SDS011;5814;41.936;25.556;2022-10-16T14:43:51;5.45;;;5.07;;
11514;SDS011;5814;41.936;25.556;2022-10-16T14:46:19;5.87;;;5.47;;
11514;SDS011;5814;41.936;25.556;2022-10-16T14:48:46;6.57;;;6.07;;
11514;SDS011;5814;41.936;25.556;2022-10-16T14:51:15;6.47;;;6.05;;
11514;SDS011;5814;41.936;25.556;2022-10-16T14:53:42;6.65;;;6.15;;
11514;SDS011;5814;41.936;25.556;2022-10-16T14:56:14;9.35;;;6.10;;
11514;SDS011;5814;41.936;25.556;2022-10-16T14:58:41;7.05;;;6.35;;
11514;SDS011;5814;41.936;25.556;2022-10-16T15:01:09;6.90;;;6.30;;
11514;SDS011;5814;41.936;25.556;2022-10-16T15:03:35;6.20;;;5.60;;
11514;SDS011;5814;41.936;25.556;2022-10-16T15:06:02;8.00;;;7.12;;
11514;SDS011;5814;41.936;25.556;2022-10-16T15:08:30;7.37;;;6.45;;
11514;SDS011;5814;41.936;25.556;2022-10-16T15:10:57;6.82;;;6.22;;
11514;SDS011;5814;41.936;25.556;2022-10-16T15:13:24;8.57;;;6.70;;
11514;SDS011;5814;41.936;25.556;2022-10-16T15:15:51;7.20;;;6.50;;
11514;SDS011;5814;41.936;25.556;2022-10-16T15:18:18;7.37;;;6.68;;